Time;durP1;ratioP1;P1;durP2;ratioP2;P2;SDS_P1;SDS_P2;PMS_P1;PMS_P2;Temp;Humidity;BMP_temperature;BMP_pressure;BME280_temperature;BME280_humidity;BME280_pressure;Samples;Min_cycle;Max_cycle;Signal;HPM_P1;HPM_P2
2022/11/06 00:02:15;;;;;;;7.30;4.70;;;;;;;8.86;92.93;101431.31;5135243;27;20050;-78
2022/11/06 00:04:46;;;;;;;8.32;4.90;;;;;;;8.87;92.87;101434.72;5135827;27;20051;-77
2022/11/06 00:07:13;;;;;;;4.90;4.25;;;;;;;8.84;92.92;101423.00;5135936;27;20115;-78
2022/11/06 00:09:40;;;;;;;5.97;4.70;;;;;;;8.84;92.79;101411.66;5135390;27;20044;-78
2022/11/06 00:12:06;;;;;;;5.78;4.53;;;;;;;8.83;93.31;101428.72;5136341;27;20111;-78
2022/11/06 00:14:34;;;;;;;10.23;4.90;;;;;;;8.80;93.00;101419.69;5135489;27;20127;-81
2022/11/06 00:17:00;;;;;;;7.60;4.72;;;;;;;8.81;93.14;101423.09;5135549;27;20127;-78
2022/11/06 00:19:26;;;;;;;9.65;4.95;;;;;;;8.81;93.35;101437.09;5135107;27;20083;-79
2022/11/06 00:21:53;;;;;;;7.03;4.72;;;;;;;8.82;93.06;101438.59;5135886;27;20075;-79
2022/11/06 00:24:19;;;;;;;7.72;4.70;;;;;;;8.84;93.16;101438.94;5134954;27;20138;-79
2022/11/06 00:26:46;;;;;;;8.40;5.13;;;;;;;8.85;93.50;101426.41;5135354;27;20075;-80
2022/11/06 00:29:19;;;;;;;10.43;4.47;;;;;;;8.87;93.49;101426.75;5135484;27;20072;-78
2022/11/06 00:31:48;;;;;;;13.05;5.78;;;;;;;8.87;93.21;101430.16;5134910;27;20139;-79
2022/11/06 00:34:15;;;;;;;9.55;5.57;;;;;;;8.87;93.23;101427.50;5135212;27;20314;-79
2022/11/06 00:36:41;;;;;;;7.13;4.63;;;;;;;8.87;93.53;101421.44;5135006;27;20055;-79
2022/11/06 00:39:10;;;;;;;11.90;5.93;;;;;;;8.86;93.60;101417.28;5116964;27;20051;-79
2022/11/06 00:41:36;;;;;;;8.52;4.70;;;;;;;8.85;93.47;101421.84;5135115;27;20122;-79
2022/11/06 00:44:03;;;;;;;10.05;4.90;;;;;;;8.83;93.72;101416.19;5135549;27;20040;-79
2022/11/06 00:46:29;;;;;;;9.82;5.05;;;;;;;8.84;93.51;101417.69;5133065;27;20123;-79
2022/11/06 00:48:56;;;;;;;11.10;5.18;;;;;;;8.86;93.94;101425.25;5135552;27;20535;-79
2022/11/06 00:51:28;;;;;;;16.48;5.32;;;;;;;8.84;93.78;101415.03;5134459;27;20118;-79
2022/11/06 00:53:57;;;;;;;;;;;;;;;8.84;93.17;101417.69;5136190;27;20551;-79
2022/11/06 00:56:24;;;;;;;7.75;4.78;;;;;;;8.83;93.72;101412.81;5135444;27;19966;-79
2022/11/06 00:58:50;;;;;;;10.30;5.22;;;;;;;8.82;93.85;101408.66;5134765;27;20043;-79
2022/11/06 01:01:23;;;;;;;5.78;5.03;;;;;;;8.80;93.79;101405.66;5134399;27;20050;-79
2022/11/06 01:03:55;;;;;;;10.35;4.50;;;;;;;8.80;94.01;101408.31;5134682;27;20543;-79
2022/11/06 01:06:24;;;;;;;6.18;4.70;;;;;;;8.80;94.14;101413.63;5133052;27;20520;-79
2022/11/06 01:08:51;;;;;;;8.55;4.53;;;;;;;8.80;94.06;101413.63;5134605;27;20115;-79
2022/11/06 01:11:23;;;;;;;10.88;4.75;;;;;;;8.80;94.17;101405.66;5134515;27;20068;-79
2022/11/06 01:13:53;;;;;;;8.52;4.45;;;;;;;8.80;94.11;101403.75;5134114;27;20043;-79
2022/11/06 01:16:21;;;;;;;8.77;4.80;;;;;;;8.81;94.23;101405.25;5134268;27;20088;-79
2022/11/06 01:18:49;;;;;;;10.82;5.15;;;;;;;8.81;94.29;101402.59;5134411;27;20152;-78
2022/11/06 01:21:19;;;;;;;9.77;5.07;;;;;;;8.82;94.23;101406.00;5134465;27;20048;-80
2022/11/06 01:23:50;;;;;;;6.15;4.50;;;;;;;8.83;94.09;101404.84;5133651;27;20048;-79
2022/11/06 01:26:17;;;;;;;5.40;4.83;;;;;;;8.85;94.29;101399.88;5132950;27;20512;-79
2022/11/06 01:29:05;;;;;;;12.13;5.00;;;;;;;8.85;93.75;101397.22;5134474;27;20092;-79
2022/11/06 01:31:33;;;;;;;9.57;5.03;;;;;;;8.86;94.18;101396.06;5134223;27;20048;-79
2022/11/06 01:34:00;;;;;;;6.40;4.35;;;;;;;8.86;94.27;101404.75;5134290;27;20212;-79
2022/11/06 01:36:28;;;;;;;7.60;4.57;;;;;;;8.86;93.94;101399.47;5133993;27;20044;-80
2022/11/06 01:38:57;;;;;;;5.53;4.50;;;;;;;8.88;94.12;101397.13;5134740;27;20043;-79
2022/11/06 01:41:26;;;;;;;11.38;4.47;;;;;;;8.87;94.04;101387.69;5134082;27;20043;-79
2022/11/06 01:43:57;;;;;;;6.65;4.20;;;;;;;8.88;94.15;101391.81;5133955;27;20328;-79
2022/11/06 01:46:26;;;;;;;9.27;4.60;;;;;;;8.89;93.93;101384.59;5133910;27;20039;-78
2022/11/06 01:49:07;;;;;;;8.10;4.38;;;;;;;8.89;93.86;101389.91;5134229;27;20044;-79
2022/11/06 01:51:39;;;;;;;8.87;4.43;;;;;;;8.90;94.06;101388.75;5134006;27;20119;-79
2022/11/06 01:54:07;;;;;;;9.00;4.25;;;;;;;8.90;94.08;101391.41;5134288;27;20119;-79
2022/11/06 01:56:36;;;;;;;9.52;4.07;;;;;;;8.90;94.15;101394.81;5133681;27;20054;-79
2022/11/06 01:59:05;;;;;;;5.43;4.03;;;;;;;8.90;94.20;101400.13;5133572;27;20052;-79
2022/11/06 02:01:32;;;;;;;5.10;3.65;;;;;;;8.91;94.12;101388.34;5133653;27;20122;-79
2022/11/06 02:04:06;;;;;;;8.57;4.13;;;;;;;8.91;93.99;101385.69;5133239;27;20044;-78
2022/11/06 02:06:33;;;;;;;10.15;3.72;;;;;;;8.92;93.96;101376.56;5133462;27;20049;-79
2022/11/06 02:09:00;;;;;;;13.00;4.10;;;;;;;8.92;93.94;101368.59;5131552;27;20036;-79
2022/11/06 02:11:27;;;;;;;9.05;4.00;;;;;;;8.94;93.85;101370.84;5133169;27;20063;-79
2022/11/06 02:14:08;;;;;;;9.57;4.28;;;;;;;8.93;94.10;101370.09;5132222;27;20039;-79
2022/11/06 02:16:56;;;;;;;12.95;4.30;;;;;;;8.93;93.65;101354.16;5132748;27;20110;-79
2022/11/06 02:19:37;;;;;;;5.70;3.92;;;;;;;8.94;93.77;101354.91;5133779;27;20119;-79
2022/11/06 02:22:24;;;;;;;5.50;4.07;;;;;;;8.94;94.00;101353.00;5134096;27;20051;-79
2022/11/06 02:25:15;;;;;;;9.40;3.83;;;;;;;8.94;93.89;101344.28;5133243;27;20474;-79
2022/11/06 02:27:50;;;;;;;7.03;3.72;;;;;;;8.94;93.96;101355.66;5133352;27;20547;-79
2022/11/06 02:30:17;;;;;;;6.30;3.92;;;;;;;8.95;94.38;101359.06;5133584;27;20109;-79
2022/11/06 02:33:03;;;;;;;3.83;3.33;;;;;;;8.96;94.31;101347.28;5133403;27;20101;-79
2022/11/06 02:35:37;;;;;;;5.82;3.90;;;;;;;8.95;94.38;101351.84;5132891;27;20538;-79
2022/11/06 02:38:07;;;;;;;8.35;3.95;;;;;;;8.95;94.41;101337.81;5133714;27;20541;-79
2022/11/06 02:40:39;;;;;;;11.57;3.40;;;;;;;8.97;93.92;101340.81;5132885;27;20043;-79
2022/11/06 02:43:07;;;;;;;4.82;3.40;;;;;;;8.98;93.78;101337.75;5132029;27;20130;-79
2022/11/06 02:45:50;;;;;;;8.43;3.90;;;;;;;8.98;93.99;101343.06;5132974;27;20573;-79
2022/11/06 02:48:20;;;;;;;7.15;3.63;;;;;;;8.98;93.93;101342.31;5132913;27;20496;-79
2022/11/06 02:50:50;;;;;;;7.55;3.17;;;;;;;8.99;94.28;101343.81;5133225;27;20043;-79
2022/11/06 02:53:21;;;;;;;11.52;3.35;;;;;;;8.99;94.36;101339.25;5131967;27;20048;-79
2022/11/06 02:56:06;;;;;;;7.43;3.50;;;;;;;8.99;93.93;101331.28;5131268;27;20051;-79
2022/11/06 02:58:52;;;;;;;4.45;3.38;;;;;;;9.00;93.84;101337.34;5132793;27;20464;-79
2022/11/06 03:01:26;;;;;;;5.25;3.25;;;;;;;9.00;94.07;101340.00;5131489;27;20055;-79
2022/11/06 03:03:59;;;;;;;7.93;3.33;;;;;;;9.01;94.22;101341.50;5133739;27;20139;-78
2022/11/06 03:06:38;;;;;;;8.30;3.42;;;;;;;9.02;94.04;101327.06;5132890;27;20077;-78
2022/11/06 03:09:11;;;;;;;9.90;3.42;;;;;;;9.03;94.07;101328.53;5133128;27;20046;-79
2022/11/06 03:11:38;;;;;;;8.55;3.20;;;;;;;9.02;93.85;101321.75;5132706;27;20119;-79
2022/11/06 03:14:15;;;;;;;9.73;3.30;;;;;;;9.02;94.06;101319.84;5134282;27;20066;-79
2022/11/06 03:16:58;;;;;;;10.10;3.97;;;;;;;9.01;94.05;101317.59;5136759;27;20048;-79
2022/11/06 03:19:36;;;;;;;8.68;3.17;;;;;;;9.00;93.66;101324.81;5136272;27;20039;-79
2022/11/06 03:22:11;;;;;;;5.18;3.13;;;;;;;8.99;93.89;101315.34;5137366;27;20123;-78
2022/11/06 03:25:15;;;;;;;10.77;3.33;;;;;;;9.00;93.91;101329.38;5135862;27;20051;-78
2022/11/06 03:28:04;;;;;;;7.65;3.33;;;;;;;9.01;93.86;101328.22;5136313;27;20187;-78
2022/11/06 03:30:38;;;;;;;7.72;2.88;;;;;;;9.01;94.04;101336.94;5135709;27;20054;-78
2022/11/06 03:33:19;;;;;;;9.45;3.70;;;;;;;9.01;93.94;101334.28;5136730;27;20575;-78
2022/11/06 03:36:18;;;;;;;8.55;3.20;;;;;;;9.02;93.72;101321.75;5136295;27;20039;-78
2022/11/06 03:38:50;;;;;;;6.22;3.47;;;;;;;9.02;94.17;101327.06;5135411;27;20224;-78
2022/11/06 03:41:25;;;;;;;;;;;;;;;9.00;93.25;101316.84;5134840;27;20067;-78
2022/11/06 03:43:56;;;;;;;5.45;3.13;;;;;;;9.00;93.73;101310.78;5134932;27;19927;-78
2022/11/06 03:46:24;;;;;;;8.38;2.92;;;;;;;8.98;93.81;101300.56;5136318;27;20164;-79
2022/11/06 03:48:59;;;;;;;7.30;2.72;;;;;;;8.95;94.25;101295.34;5136148;27;20118;-78
2022/11/06 03:51:30;;;;;;;5.18;3.10;;;;;;;8.92;94.22;101294.25;5134387;27;20054;-78
2022/11/06 03:54:13;;;;;;;7.63;2.75;;;;;;;8.90;94.75;101291.25;5136116;27;20043;-78
2022/11/06 03:56:49;;;;;;;4.18;2.63;;;;;;;8.89;94.89;101291.69;5136058;27;20039;-78
2022/11/06 03:59:22;;;;;;;3.38;2.72;;;;;;;8.86;95.54;101290.59;5134437;27;20478;-80
2022/11/06 04:01:52;;;;;;;7.53;3.15;;;;;;;8.86;95.20;101285.28;5135967;27;20123;-78
2022/11/06 04:04:37;;;;;;;11.10;2.80;;;;;;;8.87;95.37;101288.69;5136065;27;20126;-78
2022/11/06 04:07:12;;;;;;;8.40;3.33;;;;;;;8.89;95.35;101292.44;5136243;27;20079;-79
2022/11/06 04:15:18;;;;;;;4.63;3.03;;;;;;;8.93;95.32;101274.50;5135723;27;20482;-78
2022/11/06 04:17:44;;;;;;;7.40;2.78;;;;;;;8.95;95.26;101269.53;5135387;27;20059;-78
2022/11/06 04:23:37;;;;;;;5.55;2.70;;;;;;;8.97;95.09;101269.13;5135676;27;20071;-78
2022/11/06 04:29:29;;;;;;;5.78;2.60;;;;;;;9.02;95.00;101272.03;5135798;27;20035;-78
2022/11/06 04:32:31;;;;;;;7.32;3.25;;;;;;;9.03;94.90;101273.53;5135759;27;20119;-78
2022/11/06 04:35:14;;;;;;;8.48;2.83;;;;;;;9.06;94.73;101268.53;5092325;28;20048;-78
2022/11/06 04:37:43;;;;;;;7.40;2.75;;;;;;;9.07;94.71;101278.75;5091262;28;20098;-79
2022/11/06 04:40:16;;;;;;;9.27;2.90;;;;;;;9.08;94.75;101269.63;5075119;28;20076;-79
2022/11/06 04:43:02;;;;;;;6.35;2.72;;;;;;;9.09;94.61;101271.13;5092050;28;20245;-79
2022/11/06 04:45:34;;;;;;;4.80;2.75;;;;;;;9.11;94.70;101263.47;5091423;28;20053;-79
2022/11/06 04:48:03;;;;;;;7.80;2.60;;;;;;;9.11;94.81;101260.81;5091939;28;20132;-78
2022/11/06 04:50:38;;;;;;;6.22;2.53;;;;;;;9.12;94.57;101256.25;5090966;28;20128;-79
2022/11/06 04:53:08;;;;;;;6.82;2.50;;;;;;;9.12;94.67;101258.91;5091430;28;20052;-79
2022/11/06 04:55:48;;;;;;;6.88;2.88;;;;;;;9.13;94.60;101252.44;5091086;28;20053;-79
2022/11/06 04:58:15;;;;;;;4.30;2.17;;;;;;;9.14;94.75;101245.97;5091416;28;20533;-79
2022/11/06 05:00:45;;;;;;;4.78;2.75;;;;;;;9.13;94.51;101244.47;5091522;28;20545;-78
2022/11/06 05:03:13;;;;;;;6.28;2.50;;;;;;;9.13;94.23;101249.78;5091462;28;20521;-79
2022/11/06 05:05:40;;;;;;;6.53;2.92;;;;;;;9.14;94.11;101243.31;5090771;28;20044;-79
2022/11/06 05:08:12;;;;;;;4.05;2.60;;;;;;;9.14;94.12;101240.66;5091732;28;20047;-79
2022/11/06 05:10:41;;;;;;;6.82;2.25;;;;;;;9.13;93.92;101233.84;5113298;27;20058;-78
2022/11/06 05:13:12;;;;;;;6.90;2.45;;;;;;;9.13;94.02;101239.16;5134938;27;20332;-80
2022/11/06 05:15:39;;;;;;;6.13;2.50;;;;;;;9.13;94.11;101242.56;5134950;27;20066;-79
2022/11/06 05:18:06;;;;;;;6.28;2.80;;;;;;;9.14;94.18;101235.34;5134780;27;20114;-79
2022/11/06 05:20:32;;;;;;;6.32;2.13;;;;;;;9.15;93.80;101237.59;5132295;27;20130;-79
2022/11/06 05:22:59;;;;;;;8.18;2.65;;;;;;;9.16;94.16;101246.31;5133237;27;20083;-80
2022/11/06 05:25:29;;;;;;;11.80;3.00;;;;;;;9.16;93.98;101248.97;5133922;27;20051;-79
2022/11/06 05:27:56;;;;;;;6.47;2.22;;;;;;;9.16;93.62;101236.41;5134466;27;20213;-79
2022/11/06 05:30:24;;;;;;;4.25;2.78;;;;;;;9.17;94.00;101229.19;5134592;27;20118;-80
2022/11/06 05:32:51;;;;;;;5.50;2.47;;;;;;;9.18;93.56;101228.03;5134168;27;20118;-79
2022/11/06 05:35:19;;;;;;;5.00;2.58;;;;;;;9.17;93.90;101221.97;5133885;27;20142;-79
2022/11/06 05:37:46;;;;;;;6.97;2.30;;;;;;;9.18;93.75;101222.72;5132663;27;20081;-80
2022/11/06 05:40:13;;;;;;;2.67;2.13;;;;;;;9.18;93.51;101222.72;5134511;27;20411;-78
2022/11/06 05:42:42;;;;;;;5.32;2.40;;;;;;;9.19;93.57;101224.97;5132719;27;20139;-79
2022/11/06 05:45:09;;;;;;;10.90;2.92;;;;;;;9.20;93.66;101220.38;5134287;27;20457;-79
2022/11/06 05:47:40;;;;;;;4.20;2.60;;;;;;;9.21;93.96;101213.91;5133730;27;20051;-78
2022/11/06 05:50:08;;;;;;;4.53;2.42;;;;;;;9.21;93.76;101211.97;5132463;27;20051;-79
2022/11/06 05:52:35;;;;;;;4.90;2.40;;;;;;;9.22;93.57;101218.03;5133861;27;20044;-79
2022/11/06 05:55:03;;;;;;;4.60;2.72;;;;;;;9.23;93.86;101214.22;5134825;27;20118;-79
2022/11/06 05:57:31;;;;;;;2.83;2.50;;;;;;;9.22;93.57;101205.50;5133384;27;20075;-79
2022/11/06 05:59:57;;;;;;;5.32;2.42;;;;;;;9.22;93.80;101205.50;5134361;27;20126;-79
2022/11/06 06:02:24;;;;;;;8.23;2.65;;;;;;;9.23;93.52;101207.00;5134013;27;20043;-79
2022/11/06 06:04:50;;;;;;;8.15;2.85;;;;;;;9.22;93.64;101200.19;5133460;27;20085;-79
2022/11/06 06:07:17;;;;;;;8.02;2.47;;;;;;;9.23;93.87;101198.28;5133832;27;20050;-80
2022/11/06 06:09:43;;;;;;;10.32;2.88;;;;;;;9.23;93.48;101193.72;5133950;27;20075;-79
2022/11/06 06:12:12;;;;;;;6.63;2.70;;;;;;;9.23;93.41;101188.41;5133908;27;20086;-80
2022/11/06 06:14:38;;;;;;;6.32;2.50;;;;;;;9.23;93.41;101190.31;5133749;27;20115;-79
2022/11/06 06:17:05;;;;;;;5.38;2.85;;;;;;;9.22;93.71;101188.81;5133910;27;20052;-80
2022/11/06 06:19:31;;;;;;;5.28;2.53;;;;;;;9.21;93.86;101180.09;5132778;27;20048;-79
2022/11/06 06:21:58;;;;;;;3.20;2.47;;;;;;;9.22;93.59;101178.19;5134053;27;20135;-79
2022/11/06 06:24:24;;;;;;;4.57;2.55;;;;;;;9.20;93.93;101173.31;5133020;27;20051;-79
2022/11/06 06:26:51;;;;;;;3.45;2.55;;;;;;;9.20;93.65;101164.59;5133406;27;20077;-79
2022/11/06 06:29:17;;;;;;;4.82;2.85;;;;;;;9.18;93.86;101158.97;5133794;27;20135;-79
2022/11/06 06:31:44;;;;;;;3.85;2.38;;;;;;;9.17;93.52;101171.50;5133281;27;20541;-79
2022/11/06 06:34:10;;;;;;;6.47;2.55;;;;;;;9.18;93.88;101164.28;5133095;27;20039;-78
2022/11/06 06:36:36;;;;;;;10.80;2.88;;;;;;;9.19;93.75;101160.47;5133515;27;20127;-78
2022/11/06 06:39:03;;;;;;;5.60;2.47;;;;;;;9.19;93.97;101161.22;5133849;27;20039;-79
2022/11/06 06:41:29;;;;;;;4.13;2.38;;;;;;;9.20;93.46;101164.59;5132743;27;20474;-79
2022/11/06 06:43:56;;;;;;;9.40;3.13;;;;;;;9.20;93.85;101167.25;5133388;27;20044;-79
2022/11/06 06:46:22;;;;;;;7.45;2.88;;;;;;;9.20;93.87;101173.31;5133503;27;20075;-79
2022/11/06 06:48:49;;;;;;;11.50;3.15;;;;;;;9.22;93.80;101180.84;5132163;27;20039;-79
2022/11/06 06:51:15;;;;;;;5.45;2.85;;;;;;;9.23;93.93;101174.38;5133192;27;20124;-79
2022/11/06 06:53:49;;;;;;;5.28;2.85;;;;;;;9.24;94.40;101178.53;5133400;27;20070;-79
2022/11/06 06:56:15;;;;;;;14.52;3.60;;;;;;;9.22;95.98;101176.28;5132947;27;20054;-77
2022/11/06 06:58:42;;;;;;;4.93;3.10;;;;;;;9.19;96.28;101179.81;5132864;27;20072;-77
2022/11/06 07:01:09;;;;;;;4.05;2.83;;;;;;;9.15;96.83;101168.53;5133446;27;20047;-77
2022/11/06 07:03:37;;;;;;;3.30;2.70;;;;;;;9.14;97.36;101174.25;5131956;27;20040;-77
2022/11/06 07:06:04;;;;;;;5.90;2.50;;;;;;;9.13;97.85;101170.09;5133281;27;20048;-77
2022/11/06 07:08:32;;;;;;;3.83;2.92;;;;;;;9.12;97.94;101164.03;5132248;27;20050;-77
2022/11/06 07:11:03;;;;;;;8.05;3.05;;;;;;;9.16;98.42;101163.97;5133486;27;20533;-76
2022/11/06 07:13:30;;;;;;;6.70;3.15;;;;;;;9.19;98.23;101163.13;5132993;27;20489;-77
2022/11/06 07:16:06;;;;;;;5.95;2.90;;;;;;;9.20;98.11;101157.38;5133301;27;20536;-77
2022/11/06 07:18:33;;;;;;;11.93;3.60;;;;;;;9.23;98.39;101164.50;5132928;27;20194;-77
2022/11/06 07:21:03;;;;;;;6.47;3.78;;;;;;;9.25;98.88;101170.13;5133061;27;20500;-77
2022/11/06 07:23:29;;;;;;;5.30;3.28;;;;;;;9.26;98.41;101165.56;5132939;27;20035;-77
2022/11/06 07:25:56;;;;;;;8.45;3.10;;;;;;;9.29;98.20;101159.41;5133578;27;20054;-77
2022/11/06 07:28:22;;;;;;;7.78;2.83;;;;;;;9.31;98.21;101159.75;5133684;27;20115;-78
2022/11/06 07:30:49;;;;;;;5.45;2.63;;;;;;;9.31;97.51;101152.53;5133238;27;20086;-78
2022/11/06 07:33:15;;;;;;;9.35;3.22;;;;;;;9.34;98.00;101161.56;5133258;27;20078;-78
2022/11/06 07:35:41;;;;;;;4.72;2.58;;;;;;;9.34;98.12;101149.03;5133507;27;20076;-78
2022/11/06 07:38:08;;;;;;;5.75;2.80;;;;;;;9.34;98.03;101146.38;5133862;27;20572;-78
2022/11/06 07:40:35;;;;;;;10.98;2.90;;;;;;;9.35;97.79;101144.47;5133983;27;20131;-78
2022/11/06 07:43:04;;;;;;;5.55;2.85;;;;;;;9.35;97.74;101150.53;5133537;27;20074;-78
2022/11/06 07:45:30;;;;;;;7.38;3.28;;;;;;;9.34;97.58;101149.03;5132447;27;20535;-78
2022/11/06 07:47:57;;;;;;;5.95;2.80;;;;;;;9.34;97.27;101149.03;5133312;27;20492;-80
2022/11/06 07:50:25;;;;;;;5.40;2.45;;;;;;;9.35;97.72;101155.84;5133100;27;20881;-80
2022/11/06 07:52:51;;;;;;;5.95;2.78;;;;;;;9.36;97.96;101152.00;5133285;27;20480;-80
2022/11/06 07:55:18;;;;;;;8.55;2.40;;;;;;;9.37;97.40;101158.06;5131662;27;20138;-80
2022/11/06 07:57:45;;;;;;;4.38;2.60;;;;;;;9.40;97.44;101162.56;5133234;27;20064;-80
2022/11/06 08:00:12;;;;;;;5.25;2.92;;;;;;;9.43;97.44;101156.41;5132651;27;20130;-81
2022/11/06 08:02:39;;;;;;;7.97;2.85;;;;;;;9.46;97.30;101158.22;5136725;27;20059;-81
2022/11/06 08:05:06;;;;;;;3.40;2.53;;;;;;;9.49;97.18;101149.41;5136657;27;20483;-80
2022/11/06 08:07:32;;;;;;;10.18;2.55;;;;;;;9.51;96.83;101139.09;5136568;27;20050;-79
2022/11/06 08:09:59;;;;;;;4.13;2.67;;;;;;;9.56;96.01;101133.25;5137013;27;20146;-81
2022/11/06 08:12:25;;;;;;;4.68;2.90;;;;;;;9.66;96.48;101139.44;5136298;27;20079;-79
2022/11/06 08:14:52;;;;;;;6.70;3.50;;;;;;;9.71;95.61;101146.88;5135987;27;20573;-79
2022/11/06 08:17:18;;;;;;;5.80;2.80;;;;;;;9.76;95.77;101140.31;5136243;27;20551;-80
2022/11/06 08:19:45;;;;;;;6.13;3.25;;;;;;;9.81;94.81;101143.19;5136479;27;20122;-79
2022/11/06 08:22:11;;;;;;;7.60;3.58;;;;;;;9.89;94.64;101135.75;5136212;27;20119;-80
2022/11/06 08:24:37;;;;;;;5.97;2.90;;;;;;;9.92;94.86;101118.94;5133735;27;20083;-79
2022/11/06 08:27:04;;;;;;;4.25;2.55;;;;;;;9.97;94.53;101111.19;5135989;27;20039;-79
2022/11/06 08:29:30;;;;;;;3.67;2.85;;;;;;;9.99;94.56;101121.41;5134257;27;20044;-79
2022/11/06 08:32:00;;;;;;;6.35;2.50;;;;;;;10.03;93.81;101116.69;5134625;27;20142;-79
2022/11/06 08:34:26;;;;;;;6.10;2.33;;;;;;;10.06;93.41;101123.81;5135786;27;20040;-79
2022/11/06 08:36:52;;;;;;;8.93;2.40;;;;;;;10.11;93.57;101106.59;5136222;27;20040;-79
2022/11/06 08:39:19;;;;;;;2.88;2.42;;;;;;;10.21;93.63;101103.63;5136013;27;20172;-79
2022/11/06 08:41:45;;;;;;;7.45;2.45;;;;;;;10.33;93.43;101104.78;5135642;27;20130;-78
2022/11/06 08:44:12;;;;;;;4.15;2.42;;;;;;;10.49;92.81;101101.97;5135618;27;20043;-78
2022/11/06 08:46:38;;;;;;;5.55;2.40;;;;;;;10.62;91.37;101093.97;5135944;27;20090;-79
2022/11/06 08:49:05;;;;;;;3.47;2.35;;;;;;;10.75;91.64;101078.72;5136015;27;20039;-80
2022/11/06 08:51:31;;;;;;;5.88;1.95;;;;;;;10.84;90.47;101088.66;5135593;27;20039;-79
2022/11/06 08:53:57;;;;;;;4.18;2.30;;;;;;;10.81;90.47;101079.63;5135775;27;20079;-78
2022/11/06 08:56:24;;;;;;;13.52;2.35;;;;;;;10.90;90.48;101079.69;5134240;27;20031;-78
2022/11/06 08:58:50;;;;;;;8.93;2.58;;;;;;;11.00;90.24;101073.25;5134948;27;20120;-78
2022/11/06 09:01:22;;;;;;;8.63;2.67;;;;;;;11.13;89.29;101081.19;5133948;27;20050;-78
2022/11/06 09:03:49;;;;;;;4.88;2.28;;;;;;;11.14;89.65;101076.63;5135483;27;20055;-80
2022/11/06 09:06:16;;;;;;;7.38;2.55;;;;;;;11.21;88.55;101063.00;5133980;27;20118;-80
2022/11/06 09:08:42;;;;;;;5.65;2.30;;;;;;;11.22;89.05;101070.56;5135632;27;20042;-80
2022/11/06 09:11:10;;;;;;;3.42;2.20;;;;;;;11.28;88.23;101060.09;5135388;27;20083;-83
2022/11/06 09:13:37;;;;;;;5.13;2.35;;;;;;;11.23;88.52;101052.66;5133919;27;20047;-79
2022/11/06 09:16:05;;;;;;;2.85;2.30;;;;;;;11.14;88.16;101049.97;5133964;27;20150;-80
2022/11/06 09:18:36;;;;;;;3.60;2.20;;;;;;;11.08;87.91;101047.13;5135296;27;20036;-78
2022/11/06 09:21:03;;;;;;;3.22;2.55;;;;;;;11.07;88.39;101047.56;5135307;27;20894;-78
2022/11/06 09:23:29;;;;;;;5.40;2.22;;;;;;;11.07;88.60;101048.28;5135243;27;20519;-78
2022/11/06 09:25:56;;;;;;;3.80;1.90;;;;;;;11.12;87.88;101041.66;5134542;27;20098;-79
2022/11/06 09:28:23;;;;;;;1.95;1.75;;;;;;;11.24;89.13;101046.16;5134584;27;20044;-77
2022/11/06 09:30:49;;;;;;;3.33;1.90;;;;;;;11.38;87.69;101040.31;5135353;27;20050;-82
2022/11/06 09:33:16;;;;;;;5.38;2.42;;;;;;;11.48;87.53;101049.09;5135119;27;20123;-80
2022/11/06 09:35:43;;;;;;;6.05;2.20;;;;;;;11.52;87.32;101037.13;5135172;27;20048;-78
2022/11/06 09:38:11;;;;;;;5.55;2.35;;;;;;;11.55;86.95;101038.19;5135367;27;20036;-78
2022/11/06 09:40:49;;;;;;;5.32;1.70;;;;;;;11.57;86.49;101031.22;5134519;27;20140;-79
2022/11/06 09:43:31;;;;;;;3.42;1.90;;;;;;;11.54;87.31;101040.09;5134416;27;20054;-78
2022/11/06 09:46:25;;;;;;;3.17;2.00;;;;;;;11.56;87.18;101039.66;5134485;27;20044;-79
2022/11/06 09:48:57;;;;;;;5.85;2.10;;;;;;;11.65;87.23;101037.75;5134644;27;20119;-78
2022/11/06 09:51:38;;;;;;;4.70;1.63;;;;;;;11.73;86.76;101037.50;5134664;27;20044;-78
2022/11/06 09:54:14;;;;;;;7.57;2.10;;;;;;;11.81;86.17;101038.72;5114062;28;20508;-78
2022/11/06 09:56:44;;;;;;;3.42;2.15;;;;;;;11.82;86.10;101034.88;5129094;27;20285;-78
2022/11/06 09:59:17;;;;;;;3.70;2.03;;;;;;;11.90;86.49;101031.50;5113727;28;20051;-78
2022/11/06 10:01:51;;;;;;;1.92;1.55;;;;;;;11.90;85.93;101030.75;5113708;27;20079;-80
2022/11/06 10:04:46;;;;;;;3.20;1.70;;;;;;;11.95;85.69;101030.19;5113939;27;20047;-81
2022/11/06 10:07:32;;;;;;;3.88;2.00;;;;;;;11.93;85.60;101024.53;5114088;27;20078;-80
2022/11/06 10:10:00;;;;;;;7.22;1.80;;;;;;;11.89;84.81;101038.03;5113907;27;20044;-79
2022/11/06 10:13:13;;;;;;;5.25;2.03;;;;;;;11.84;86.11;101029.84;5119036;27;20079;-80
2022/11/06 10:15:47;;;;;;;4.57;1.55;;;;;;;11.78;85.56;101018.28;5101347;27;20060;-80
2022/11/06 10:18:46;;;;;;;2.42;1.90;;;;;;;11.82;86.07;101018.88;5134200;27;20127;-80
2022/11/06 10:21:21;;;;;;;4.40;1.70;;;;;;;11.85;85.45;101007.34;5119255;27;20070;-81
2022/11/06 10:24:02;;;;;;;3.47;1.67;;;;;;;11.87;84.93;101013.72;5133135;27;20056;-78
2022/11/06 10:26:38;;;;;;;3.97;1.67;;;;;;;11.85;85.10;101015.34;5133838;27;20610;-80
2022/11/06 10:29:52;;;;;;;6.47;1.55;;;;;;;11.84;85.33;101005.84;5134334;27;20044;-80
2022/11/06 10:33:05;;;;;;;4.18;1.48;;;;;;;11.86;85.60;100998.16;5090246;28;20616;-79
2022/11/06 10:35:37;;;;;;;2.53;1.33;;;;;;;11.90;84.89;100990.75;5084621;28;20620;-79
2022/11/06 10:38:11;;;;;;;3.13;1.73;;;;;;;11.91;84.74;100992.97;5090313;28;20057;-80
2022/11/06 10:40:38;;;;;;;3.92;1.60;;;;;;;11.93;84.77;100989.88;5090172;28;20072;-80
2022/11/06 10:43:33;;;;;;;6.28;1.42;;;;;;;11.93;85.17;100995.94;5089874;28;20123;-81
2022/11/06 10:46:03;;;;;;;3.58;1.90;;;;;;;11.87;84.92;100986.28;5089706;28;20569;-85
2022/11/06 10:48:42;;;;;;;2.05;1.50;;;;;;;11.87;85.53;100983.63;5090419;28;20052;-82
2022/11/06 10:51:20;;;;;;;5.45;2.00;;;;;;;11.81;85.74;100982.72;5073189;28;20132;-81
2022/11/06 10:54:18;;;;;;;1.85;1.70;;;;;;;11.70;86.96;100973.19;5090139;28;20044;-76
2022/11/06 10:56:53;;;;;;;4.10;1.92;;;;;;;11.55;88.47;100977.59;5090506;28;20127;-76
2022/11/06 10:59:19;;;;;;;2.60;2.05;;;;;;;11.52;89.37;100972.41;5073349;28;20055;-78
2022/11/06 11:01:46;;;;;;;2.95;1.90;;;;;;;11.47;90.76;100957.72;5089635;28;20080;-78
2022/11/06 11:04:13;;;;;;;6.88;1.65;;;;;;;11.46;91.84;100961.56;5128116;27;20489;-77
2022/11/06 11:06:40;;;;;;;5.03;1.60;;;;;;;11.53;92.04;100957.91;5133332;27;20115;-77
2022/11/06 11:09:26;;;;;;;2.38;1.88;;;;;;;11.50;91.42;100956.09;5131439;27;20056;-77
2022/11/06 11:11:52;;;;;;;4.53;1.88;;;;;;;11.48;90.39;100945.88;5133373;27;20039;-78
2022/11/06 11:14:30;;;;;;;3.67;1.70;;;;;;;11.47;90.13;100941.72;5133205;27;20130;-79
2022/11/06 11:17:00;;;;;;;5.13;1.80;;;;;;;11.45;90.08;100936.09;5133649;27;20035;-78
2022/11/06 11:19:42;;;;;;;4.90;1.90;;;;;;;11.48;90.68;100931.81;5132668;27;20068;-78
2022/11/06 11:22:15;;;;;;;4.53;1.65;;;;;;;11.47;90.23;100931.06;5132290;27;20569;-77
2022/11/06 11:25:14;;;;;;;4.85;2.10;;;;;;;11.49;89.11;100926.03;5131819;27;20056;-78
2022/11/06 11:27:44;;;;;;;5.72;1.77;;;;;;;11.51;89.39;100920.25;5132386;27;20046;-80
2022/11/06 11:30:21;;;;;;;4.88;1.98;;;;;;;11.55;89.26;100923.53;5132437;27;20043;-79
2022/11/06 11:32:48;;;;;;;5.78;1.70;;;;;;;11.60;89.71;100929.00;5133553;27;20119;-80
2022/11/06 11:35:20;;;;;;;4.22;1.77;;;;;;;11.62;88.94;100915.97;5134767;27;20055;-80
2022/11/06 11:37:47;;;;;;;;;;;;;;;11.62;89.15;100907.97;5136974;27;20127;-81
2022/11/06 11:40:35;;;;;;;4.50;1.80;;;;;;;11.65;88.50;100912.44;5137374;27;20018;-79
2022/11/06 11:43:26;;;;;;;4.45;1.70;;;;;;;11.69;88.10;100904.28;5137044;27;20500;-81
2022/11/06 11:46:03;;;;;;;5.10;2.05;;;;;;;11.73;87.58;100904.16;5136651;27;20141;-80
2022/11/06 11:48:43;;;;;;;4.60;1.90;;;;;;;11.73;87.36;100896.13;5136633;27;20156;-81
2022/11/06 11:51:29;;;;;;;5.53;1.67;;;;;;;11.75;86.92;100891.09;5136742;27;20047;-80
2022/11/06 11:54:03;;;;;;;7.03;2.33;;;;;;;11.78;86.77;100884.91;5135631;27;20039;-80
2022/11/06 11:56:31;;;;;;;8.45;1.58;;;;;;;11.81;86.37;100887.44;5136386;27;20074;-81
2022/11/06 11:59:20;;;;;;;4.25;1.35;;;;;;;11.82;85.01;100874.84;5136186;27;20123;-81
2022/11/06 12:01:48;;;;;;;3.80;1.40;;;;;;;11.82;84.60;100875.59;5136068;27;20055;-77
2022/11/06 12:04:31;;;;;;;6.07;1.88;;;;;;;11.82;84.87;100867.59;5136234;27;20040;-79
2022/11/06 12:07:00;;;;;;;2.15;1.30;;;;;;;11.84;84.16;100861.81;5134592;27;20130;-79